Time;durP1;ratioP1;P1;durP2;ratioP2;P2;SDS_P1;SDS_P2;PMS_P1;PMS_P2;Temp;Humidity;BMP_temperature;BMP_pressure;BME280_temperature;BME280_humidity;BME280_pressure;Samples;Min_cycle;Max_cycle;Signal;HPM_P1;HPM_P2
2023/06/19 13:18:08;;;;;;;5.32;2.67;;;27.00;96.10;;;;;;5000878;23;20239;-71
2023/06/19 13:20:37;;;;;;;4.25;2.17;;;27.20;95.60;;;;;;4930312;29;20227;-71
2023/06/19 13:23:03;;;;;;;4.03;2.35;;;27.20;95.50;;;;;;4930619;29;20209;-71
2023/06/19 13:25:32;;;;;;;3.65;2.10;;;27.00;94.70;;;;;;4908517;29;20243;-71
2023/06/19 13:27:59;;;;;;;3.25;1.90;;;26.90;94.30;;;;;;4908585;29;20672;-71
2023/06/19 13:30:26;;;;;;;2.92;1.98;;;26.90;95.00;;;;;;4899985;29;20249;-73
2023/06/19 13:32:53;;;;;;;3.00;2.15;;;26.90;93.60;;;;;;4895240;29;20217;-74
2023/06/19 13:35:21;;;;;;;4.20;2.03;;;27.10;94.00;;;;;;4899248;29;20264;-72
2023/06/19 13:37:49;;;;;;;3.08;2.03;;;27.00;94.30;;;;;;4903301;29;20214;-74
2023/06/19 13:40:16;;;;;;;3.28;2.38;;;27.00;94.30;;;;;;4895487;29;20256;-74
2023/06/19 13:42:43;;;;;;;4.20;2.45;;;27.10;95.60;;;;;;4896631;29;20206;-74
2023/06/19 13:45:10;;;;;;;4.15;2.28;;;27.20;95.30;;;;;;4895906;29;20328;-74
2023/06/19 13:47:37;;;;;;;2.92;2.05;;;27.30;94.30;;;;;;4908055;29;20288;-73
2023/06/19 13:50:05;;;;;;;3.25;1.92;;;27.20;93.90;;;;;;4914275;29;20566;-76
2023/06/19 13:52:32;;;;;;;2.97;1.92;;;27.20;94.20;;;;;;4906249;29;20217;-75
2023/06/19 13:55:01;;;;;;;4.32;2.10;;;27.20;95.40;;;;;;4894887;29;20316;-74
2023/06/19 13:57:28;;;;;;;3.42;2.42;;;27.40;94.90;;;;;;4905897;29;20218;-74
2023/06/19 13:59:55;;;;;;;4.45;2.13;;;27.40;94.30;;;;;;4895727;29;20241;-74
2023/06/19 14:02:21;;;;;;;4.15;2.47;;;27.40;94.40;;;;;;4895027;29;20289;-74
2023/06/19 14:04:48;;;;;;;2.85;1.92;;;27.70;94.30;;;;;;4895731;29;20257;-73
2023/06/19 14:07:16;;;;;;;4.03;2.00;;;27.50;95.30;;;;;;4906652;29;20211;-72
2023/06/19 14:09:43;;;;;;;3.45;1.58;;;27.60;95.20;;;;;;4894773;29;20259;-72
2023/06/19 14:12:11;;;;;;;2.72;1.85;;;27.70;94.60;;;;;;4901618;29;20197;-71
2023/06/19 14:14:38;;;;;;;2.88;1.80;;;27.70;94.40;;;;;;4913770;29;20679;-72
2023/06/19 14:17:05;;;;;;;2.33;1.70;;;27.70;94.60;;;;;;4910353;29;20241;-71
2023/06/19 14:19:32;;;;;;;2.80;1.80;;;27.70;95.30;;;;;;4896493;29;20218;-71
2023/06/19 14:21:59;;;;;;;3.55;2.20;;;27.70;94.50;;;;;;4899552;29;20236;-71
2023/06/19 14:24:26;;;;;;;2.22;1.80;;;27.50;95.00;;;;;;4898660;29;20301;-71
2023/06/19 14:26:53;;;;;;;4.13;1.85;;;27.60;94.40;;;;;;4911167;29;20629;-72
2023/06/19 14:29:24;;;;;;;2.33;1.80;;;27.80;94.20;;;;;;4898954;29;20220;-71
2023/06/19 14:31:52;;;;;;;3.78;1.90;;;27.90;94.30;;;;;;4898753;29;20720;-72
2023/06/19 14:34:20;;;;;;;2.95;1.80;;;27.90;94.80;;;;;;4899261;29;20221;-73
2023/06/19 14:36:47;;;;;;;3.05;1.77;;;28.10;94.70;;;;;;4911609;29;20229;-72
2023/06/19 14:39:14;;;;;;;2.80;1.83;;;28.30;95.20;;;;;;4898495;29;20210;-71
2023/06/19 14:41:41;;;;;;;3.50;1.75;;;28.50;93.90;;;;;;4912523;29;20309;-71
2023/06/19 14:44:08;;;;;;;2.42;1.88;;;28.30;93.50;;;;;;4913257;29;20217;-73
2023/06/19 14:46:38;;;;;;;2.80;1.77;;;28.30;94.00;;;;;;4916812;29;20233;-72
2023/06/19 14:49:06;;;;;;;2.20;1.60;;;28.40;94.60;;;;;;4899688;29;20221;-72
2023/06/19 14:51:33;;;;;;;2.95;1.90;;;28.30;94.40;;;;;;4897994;29;20310;-71
2023/06/19 14:54:00;;;;;;;3.45;1.88;;;28.30;94.90;;;;;;4897938;29;20206;-73
2023/06/19 14:56:27;;;;;;;3.90;1.85;;;28.50;94.20;;;;;;4907948;29;20235;-72
2023/06/19 14:58:54;;;;;;;3.45;2.08;;;28.50;93.60;;;;;;4917530;29;20260;-73
2023/06/19 15:01:21;;;;;;;4.53;2.35;;;28.60;93.90;;;;;;4917393;29;20206;-74
2023/06/19 15:03:49;;;;;;;2.60;1.75;;;28.50;94.50;;;;;;4916949;29;20205;-75
2023/06/19 15:06:16;;;;;;;3.17;1.95;;;28.60;95.40;;;;;;4916794;29;20645;-73
2023/06/19 15:08:43;;;;;;;3.97;1.70;;;28.60;94.70;;;;;;4903341;29;20297;-72
2023/06/19 15:11:10;;;;;;;6.97;2.00;;;28.70;94.40;;;;;;4911355;29;20251;-71
2023/06/19 15:13:36;;;;;;;2.58;1.70;;;28.70;95.00;;;;;;4904976;29;20210;-73
2023/06/19 15:16:05;;;;;;;2.97;1.85;;;28.50;94.10;;;;;;4904706;29;20312;-74
2023/06/19 15:18:31;;;;;;;2.47;1.98;;;28.30;94.80;;;;;;4905774;29;20225;-72
2023/06/19 15:21:00;;;;;;;3.95;1.65;;;28.40;94.30;;;;;;4898513;29;20296;-75
2023/06/19 15:23:27;;;;;;;2.50;1.65;;;28.40;94.00;;;;;;4897645;29;20211;-75
2023/06/19 15:25:54;;;;;;;2.90;1.85;;;28.30;94.50;;;;;;4903595;29;20654;-73
2023/06/19 15:28:21;;;;;;;2.55;1.83;;;28.30;94.30;;;;;;4906901;29;20301;-73
2023/06/19 15:30:48;;;;;;;3.15;1.92;;;28.30;94.40;;;;;;4896504;29;20791;-73
2023/06/19 15:33:15;;;;;;;3.13;1.85;;;28.00;94.60;;;;;;4897008;29;20198;-74
2023/06/19 15:35:41;;;;;;;3.35;1.80;;;28.00;94.80;;;;;;4912307;29;20341;-74
2023/06/19 15:38:10;;;;;;;3.20;2.03;;;27.90;95.80;;;;;;4908159;29;20249;-73
2023/06/19 15:40:37;;;;;;;3.15;1.70;;;28.00;95.80;;;;;;4897534;29;20219;-72
2023/06/19 15:43:05;;;;;;;3.28;1.88;;;28.00;94.70;;;;;;4897647;29;20311;-72
2023/06/19 15:45:31;;;;;;;2.72;1.80;;;28.00;94.50;;;;;;4899128;29;20269;-73
2023/06/19 15:47:58;;;;;;;3.30;1.80;;;28.10;94.10;;;;;;4910626;29;20294;-73
2023/06/19 15:50:25;;;;;;;2.00;1.60;;;28.10;94.00;;;;;;4897244;29;20237;-72
2023/06/19 15:52:52;;;;;;;2.88;1.92;;;28.20;94.60;;;;;;4896781;29;20298;-71
2023/06/19 15:55:21;;;;;;;2.85;1.95;;;28.30;94.80;;;;;;4898023;29;20244;-73
2023/06/19 15:57:48;;;;;;;3.17;1.80;;;28.20;95.50;;;;;;4912402;29;20237;-74
2023/06/19 16:00:16;;;;;;;2.47;1.88;;;28.30;95.30;;;;;;4896951;29;20305;-73
2023/06/19 16:02:46;;;;;;;3.42;2.15;;;28.40;95.00;;;;;;4907053;29;20214;-73
2023/06/19 16:05:13;;;;;;;3.42;2.00;;;28.50;95.80;;;;;;4905704;29;20324;-73
2023/06/19 16:07:40;;;;;;;4.60;2.20;;;28.50;94.90;;;;;;4913341;29;20296;-72
2023/06/19 16:10:08;;;;;;;2.72;1.73;;;28.30;96.40;;;;;;4897221;29;20299;-72
2023/06/19 16:12:36;;;;;;;4.68;2.22;;;28.60;96.10;;;;;;4906643;29;20292;-71
2023/06/19 16:15:04;;;;;;;5.03;2.00;;;28.60;95.60;;;;;;4914586;29;20235;-72
2023/06/19 16:17:31;;;;;;;2.78;2.00;;;28.70;95.30;;;;;;4915280;29;20224;-72
2023/06/19 16:19:59;;;;;;;2.60;1.85;;;28.80;95.90;;;;;;4897326;29;20214;-71
2023/06/19 16:22:26;;;;;;;2.22;1.75;;;28.70;95.60;;;;;;4896667;29;20214;-73
2023/06/19 16:24:53;;;;;;;3.58;2.08;;;28.60;95.80;;;;;;4896803;29;20233;-73
2023/06/19 16:27:20;;;;;;;2.40;1.80;;;28.50;95.10;;;;;;4913051;29;20312;-73
2023/06/19 16:29:48;;;;;;;2.95;2.03;;;28.50;95.40;;;;;;4897721;29;20306;-74
2023/06/19 16:32:15;;;;;;;4.10;1.92;;;28.70;95.40;;;;;;4901115;29;20541;-74
2023/06/19 16:34:42;;;;;;;2.42;1.90;;;28.60;95.50;;;;;;4899255;29;20273;-73
2023/06/19 16:37:09;;;;;;;2.50;1.85;;;28.50;94.90;;;;;;4911618;29;20206;-74
2023/06/19 16:39:36;;;;;;;3.33;2.00;;;28.10;94.40;;;;;;4900163;29;20216;-73
2023/06/19 16:42:03;;;;;;;4.72;1.80;;;28.10;94.40;;;;;;4914968;29;20312;-72
2023/06/19 16:44:30;;;;;;;3.65;2.20;;;28.30;94.50;;;;;;4905421;29;20208;-72
2023/06/19 16:46:58;;;;;;;3.00;1.95;;;28.60;95.40;;;;;;4902146;29;20657;-72
2023/06/19 16:49:25;;;;;;;3.28;1.60;;;28.60;95.60;;;;;;4902623;29;20207;-72
2023/06/19 16:51:52;;;;;;;2.95;2.03;;;28.50;95.90;;;;;;4897683;29;20244;-73
2023/06/19 16:54:19;;;;;;;5.13;2.17;;;28.50;95.10;;;;;;4897848;29;20206;-73
2023/06/19 16:56:46;;;;;;;1.88;1.60;;;28.30;95.00;;;;;;4900406;29;20577;-73
2023/06/19 16:59:13;;;;;;;2.58;2.00;;;28.00;94.50;;;;;;4906328;29;20208;-73
2023/06/19 17:01:39;;;;;;;2.50;1.90;;;28.00;94.40;;;;;;4899087;29;20215;-72
2023/06/19 17:04:08;;;;;;;1.98;1.67;;;28.00;94.10;;;;;;4899127;29;20683;-73
2023/06/19 17:06:36;;;;;;;2.22;1.90;;;28.10;95.10;;;;;;4906008;29;20235;-72
2023/06/19 17:09:03;;;;;;;3.03;1.95;;;28.20;95.10;;;;;;4896483;29;20211;-75
2023/06/19 17:11:30;;;;;;;3.13;1.88;;;28.10;94.90;;;;;;4913800;29;20780;-75
2023/06/19 17:13:57;;;;;;;4.15;2.08;;;28.10;95.40;;;;;;4914975;29;20209;-76
2023/06/19 17:16:24;;;;;;;3.38;1.88;;;28.20;95.20;;;;;;4914878;29;20234;-76
2023/06/19 17:18:50;;;;;;;2.78;2.22;;;28.10;95.00;;;;;;4915161;29;20221;-76
2023/06/19 17:21:19;;;;;;;2.90;2.10;;;28.30;95.60;;;;;;4915696;29;20213;-73
2023/06/19 17:23:46;;;;;;;3.10;2.25;;;28.30;96.10;;;;;;4908689;29;20211;-73
2023/06/19 17:26:13;;;;;;;3.00;1.90;;;28.30;95.10;;;;;;4903162;29;20249;-73
2023/06/19 17:28:40;;;;;;;3.03;1.88;;;28.20;96.20;;;;;;4912371;29;20223;-74
2023/06/19 17:31:07;;;;;;;3.25;1.85;;;28.10;95.90;;;;;;4915935;29;20245;-73
2023/06/19 17:33:34;;;;;;;2.97;1.80;;;27.90;94.70;;;;;;4915706;29;20210;-71
2023/06/19 17:36:02;;;;;;;3.20;1.75;;;27.70;95.10;;;;;;4916075;29;20228;-74
2023/06/19 17:38:30;;;;;;;3.00;1.70;;;27.70;95.20;;;;;;4915644;29;20217;-74
2023/06/19 17:40:57;;;;;;;2.85;1.85;;;27.80;95.40;;;;;;4915819;29;20267;-73
2023/06/19 17:43:24;;;;;;;2.92;1.98;;;27.80;95.10;;;;;;4916308;29;20210;-73
2023/06/19 17:45:52;;;;;;;3.08;1.90;;;27.90;94.20;;;;;;4915960;29;20225;-71
2023/06/19 17:48:19;;;;;;;2.80;1.83;;;27.80;94.70;;;;;;4915660;29;20728;-73
2023/06/19 17:50:46;;;;;;;2.50;1.70;;;27.70;94.90;;;;;;4915718;29;20220;-73
2023/06/19 17:53:12;;;;;;;3.63;1.83;;;27.60;95.40;;;;;;4915835;29;20580;-73
2023/06/19 17:55:43;;;;;;;5.55;2.78;;;27.80;95.10;;;;;;4918289;29;20233;-71
2023/06/19 17:58:10;;;;;;;3.45;1.98;;;28.00;95.30;;;;;;4919488;29;20220;-74
2023/06/19 18:00:36;;;;;;;2.47;1.60;;;27.90;94.90;;;;;;4919534;29;20309;-75
2023/06/19 18:03:04;;;;;;;2.67;1.80;;;28.00;94.90;;;;;;4919967;29;20690;-74
2023/06/19 18:05:31;;;;;;;2.55;1.95;;;28.00;94.50;;;;;;4919532;29;20791;-71
2023/06/19 18:07:57;;;;;;;2.85;1.80;;;27.90;94.40;;;;;;4919735;29;20213;-71
2023/06/19 18:10:24;;;;;;;4.22;2.38;;;27.80;94.80;;;;;;4919854;29;20209;-71
2023/06/19 18:12:52;;;;;;;2.08;1.65;;;27.80;95.40;;;;;;4919421;29;20243;-72
2023/06/19 18:15:19;;;;;;;2.67;1.95;;;27.90;95.40;;;;;;4919303;29;20827;-71
2023/06/19 18:17:46;;;;;;;3.65;1.70;;;27.90;95.10;;;;;;4918963;29;20218;-72
2023/06/19 18:20:13;;;;;;;3.58;1.73;;;27.90;95.30;;;;;;4919516;29;20269;-72
2023/06/19 18:22:40;;;;;;;3.28;1.70;;;27.90;95.40;;;;;;4919200;29;20215;-71
2023/06/19 18:25:07;;;;;;;4.50;2.13;;;27.90;95.00;;;;;;4918856;29;20264;-72
2023/06/19 18:27:34;;;;;;;2.22;1.77;;;27.80;94.90;;;;;;4915318;29;20669;-72
2023/06/19 18:30:02;;;;;;;2.45;1.63;;;27.60;94.20;;;;;;4919208;29;20218;-72
2023/06/19 18:32:29;;;;;;;2.97;1.80;;;27.60;95.30;;;;;;4919086;29;20237;-71
2023/06/19 18:34:57;;;;;;;2.78;2.10;;;27.60;95.20;;;;;;4918910;29;20292;-71
2023/06/19 18:37:24;;;;;;;4.88;1.85;;;27.50;95.30;;;;;;4918915;29;20206;-71
2023/06/19 18:39:52;;;;;;;2.33;1.67;;;27.60;95.60;;;;;;4904156;29;20206;-71
2023/06/19 18:42:19;;;;;;;5.03;2.03;;;27.50;95.70;;;;;;4899821;29;20595;-71
2023/06/19 18:44:46;;;;;;;4.07;1.60;;;27.40;96.20;;;;;;4899819;29;20680;-72
2023/06/19 18:47:14;;;;;;;3.65;1.88;;;27.30;96.30;;;;;;4904396;29;20216;-71
2023/06/19 18:49:41;;;;;;;3.55;2.15;;;27.20;96.00;;;;;;4918700;29;20216;-71
2023/06/19 18:52:08;;;;;;;2.67;1.88;;;27.20;96.10;;;;;;4918830;29;20324;-71
2023/06/19 18:54:35;;;;;;;3.85;1.92;;;27.10;96.40;;;;;;4918929;29;20306;-71
2023/06/19 18:57:02;;;;;;;2.35;1.83;;;27.00;96.60;;;;;;4918568;29;20296;-73
2023/06/19 18:59:28;;;;;;;10.35;5.05;;;26.90;96.60;;;;;;4918803;29;20206;-72
2023/06/19 19:01:55;;;;;;;6.13;3.40;;;26.80;96.80;;;;;;4918658;29;20209;-72
2023/06/19 19:04:23;;;;;;;5.68;2.55;;;26.80;96.90;;;;;;4918744;29;20316;-73
2023/06/19 19:06:50;;;;;;;3.65;2.20;;;26.70;97.20;;;;;;4918155;29;20669;-73
2023/06/19 19:09:17;;;;;;;5.28;1.92;;;26.50;97.40;;;;;;4918762;29;20308;-72
2023/06/19 19:11:46;;;;;;;3.85;1.73;;;26.50;97.40;;;;;;4917860;29;20692;-72
2023/06/19 19:14:13;;;;;;;2.22;1.80;;;26.50;97.60;;;;;;4918382;29;20217;-71
2023/06/19 19:16:40;;;;;;;3.25;1.52;;;26.50;97.80;;;;;;4909551;29;20223;-72
2023/06/19 19:19:07;;;;;;;4.63;1.98;;;26.50;97.60;;;;;;4917715;29;20228;-74
2023/06/19 19:21:35;;;;;;;3.90;1.85;;;26.50;97.70;;;;;;4910074;29;20665;-74
2023/06/19 19:24:02;;;;;;;4.57;2.20;;;26.50;97.20;;;;;;4917172;29;20213;-72
2023/06/19 19:26:28;;;;;;;3.00;1.90;;;26.40;97.00;;;;;;4909913;29;20927;-74
2023/06/19 19:28:55;;;;;;;4.22;1.83;;;26.40;97.10;;;;;;4916196;29;20209;-72
2023/06/19 19:31:22;;;;;;;3.33;1.90;;;26.10;97.40;;;;;;4918123;29;20245;-74
2023/06/19 19:33:49;;;;;;;2.30;1.77;;;26.10;97.30;;;;;;4918024;29;20297;-73
2023/06/19 19:36:16;;;;;;;4.00;2.25;;;26.20;97.30;;;;;;4918119;29;20316;-73
2023/06/19 19:38:44;;;;;;;3.40;1.67;;;26.10;97.60;;;;;;4918468;29;20209;-73
2023/06/19 19:41:11;;;;;;;2.92;1.70;;;25.90;98.40;;;;;;4918034;29;20268;-72
2023/06/19 19:43:38;;;;;;;2.78;1.90;;;25.80;99.20;;;;;;4918238;29;20214;-72
2023/06/19 19:46:05;;;;;;;3.72;1.95;;;25.70;98.80;;;;;;4917836;29;20225;-73
2023/06/19 19:48:31;;;;;;;3.55;2.00;;;25.70;99.00;;;;;;4918418;29;20301;-73
2023/06/19 19:50:58;;;;;;;4.15;2.55;;;25.60;98.90;;;;;;4918418;29;20747;-73
2023/06/19 19:53:25;;;;;;;2.65;2.00;;;25.50;98.60;;;;;;4918518;29;20240;-73
2023/06/19 19:55:53;;;;;;;3.50;2.00;;;25.50;99.60;;;;;;4917621;29;20709;-73
2023/06/19 19:58:21;;;;;;;2.85;2.00;;;25.40;99.90;;;;;;4917931;29;20220;-73
2023/06/19 20:00:49;;;;;;;3.47;2.33;;;25.40;99.90;;;;;;4917907;29;20236;-74
2023/06/19 20:03:16;;;;;;;3.72;2.03;;;25.40;99.60;;;;;;4917539;29;20210;-73
2023/06/19 20:05:43;;;;;;;3.40;2.13;;;25.20;99.90;;;;;;4917356;29;20226;-73
2023/06/19 20:08:10;;;;;;;2.28;1.70;;;25.20;99.60;;;;;;4917763;29;20216;-72
2023/06/19 20:10:37;;;;;;;3.25;2.25;;;25.30;99.90;;;;;;4918135;29;20316;-72
2023/06/19 20:13:05;;;;;;;4.78;2.30;;;25.20;99.90;;;;;;4917411;29;20788;-73
2023/06/19 20:15:32;;;;;;;3.45;2.10;;;25.20;99.90;;;;;;4917783;29;20236;-73
2023/06/19 20:17:59;;;;;;;4.22;2.38;;;25.10;99.90;;;;;;4916723;29;20272;-72
2023/06/19 20:20:25;;;;;;;3.30;1.98;;;25.00;99.90;;;;;;4921502;29;20305;-73
2023/06/19 20:22:52;;;;;;;2.80;2.03;;;25.00;99.90;;;;;;4927460;29;20203;-72
2023/06/19 20:25:20;;;;;;;3.47;2.35;;;24.90;99.90;;;;;;4936705;29;20297;-71
2023/06/19 20:27:47;;;;;;;4.45;2.22;;;24.90;99.90;;;;;;4928920;29;20709;-71
2023/06/19 20:30:15;;;;;;;3.92;2.17;;;24.90;99.90;;;;;;4918521;29;20304;-73
2023/06/19 20:32:42;;;;;;;3.25;1.98;;;24.80;99.90;;;;;;4916940;29;20242;-73
2023/06/19 20:35:09;;;;;;;3.35;2.28;;;24.70;99.90;;;;;;4916569;29;20324;-73
2023/06/19 20:37:36;;;;;;;3.78;2.13;;;24.60;99.90;;;;;;4916671;29;20301;-73
2023/06/19 20:40:05;;;;;;;2.95;2.05;;;24.60;99.90;;;;;;4916793;29;20209;-72
2023/06/19 20:42:32;;;;;;;3.50;2.17;;;24.50;99.90;;;;;;4916691;29;20219;-73
2023/06/19 20:44:59;;;;;;;4.45;2.20;;;24.60;99.90;;;;;;4916447;29;20229;-73
2023/06/19 20:47:27;;;;;;;3.65;2.10;;;24.50;99.90;;;;;;4916053;29;20209;-73
2023/06/19 20:49:54;;;;;;;3.17;2.10;;;24.40;99.90;;;;;;4916495;29;20305;-73
2023/06/19 20:52:21;;;;;;;3.70;2.15;;;24.40;99.90;;;;;;4917020;29;20237;-74
2023/06/19 20:54:48;;;;;;;3.88;2.30;;;24.30;99.90;;;;;;4916767;29;20235;-72
2023/06/19 20:57:14;;;;;;;3.38;2.20;;;24.20;99.90;;;;;;4916404;29;20209;-72
2023/06/19 20:59:41;;;;;;;3.75;2.38;;;24.20;99.90;;;;;;4912760;29;20673;-74
